createdAt,value
2022-11-16T00:01:24.820Z,3.42
2022-11-16T00:03:53.833Z,4.20
2022-11-16T00:06:21.536Z,4.43
2022-11-16T00:09:10.315Z,4.03
2022-11-16T00:11:40.394Z,4.10
2022-11-16T00:14:07.417Z,4.20
2022-11-16T00:16:34.334Z,4.50
2022-11-16T00:19:03.367Z,4.85
2022-11-16T00:21:30.489Z,4.80
2022-11-16T00:23:57.275Z,4.43
2022-11-16T00:26:24.020Z,4.25
2022-11-16T00:28:52.617Z,4.40
2022-11-16T00:31:19.489Z,4.88
2022-11-16T00:33:46.603Z,4.50
2022-11-16T00:36:13.754Z,4.57
2022-11-16T00:38:41.397Z,4.80
2022-11-16T00:41:09.067Z,4.78
2022-11-16T00:43:36.566Z,4.90
2022-11-16T00:46:03.863Z,4.72
2022-11-16T00:48:30.636Z,5.03
2022-11-16T00:50:57.723Z,4.38
2022-11-16T00:53:24.122Z,4.70
2022-11-16T00:55:50.585Z,4.38
2022-11-16T00:58:19.441Z,4.88
2022-11-16T01:00:51.178Z,4.90
2022-11-16T01:03:17.599Z,4.57
2022-11-16T01:05:45.847Z,4.82
2022-11-16T01:08:14.409Z,4.90
2022-11-16T01:10:41.493Z,5.05
2022-11-16T01:13:10.876Z,6.18
2022-11-16T01:15:37.288Z,5.53
2022-11-16T01:18:03.778Z,6.28
2022-11-16T01:20:30.138Z,5.70
2022-11-16T01:22:56.688Z,5.28
2022-11-16T01:25:23.146Z,6.15
2022-11-16T01:27:49.608Z,6.18
2022-11-16T01:30:24.859Z,5.80
2022-11-16T01:32:59.801Z,6.05
2022-11-16T01:35:26.321Z,6.63
2022-11-16T01:37:54.155Z,7.25
2022-11-16T01:40:20.676Z,8.20
2022-11-16T01:42:47.085Z,7.80
2022-11-16T01:45:17.397Z,6.43
2022-11-16T01:47:44.410Z,6.25
2022-11-16T01:50:17.260Z,5.95
2022-11-16T01:52:59.270Z,5.53
2022-11-16T01:55:33.565Z,5.18
2022-11-16T01:58:25.691Z,5.75
2022-11-16T02:00:58.068Z,5.30
2022-11-16T02:03:37.913Z,6.35
2022-11-16T02:06:25.972Z,5.70
2022-11-16T02:09:29.764Z,6.20
2022-11-16T02:12:34.369Z,5.90
2022-11-16T02:15:23.237Z,6.82
2022-11-16T02:18:15.670Z,7.05
2022-11-16T02:21:09.284Z,6.38
2022-11-16T02:23:55.216Z,6.53
2022-11-16T02:26:46.560Z,6.90
2022-11-16T02:29:54.568Z,6.47
2022-11-16T02:32:20.976Z,6.75
2022-11-16T02:35:00.920Z,6.72
2022-11-16T02:37:32.023Z,7.18
2022-11-16T02:40:02.063Z,7.05
2022-11-16T02:42:41.770Z,7.70
2022-11-16T02:45:13.123Z,7.07
2022-11-16T02:47:42.943Z,6.90
2022-11-16T02:50:15.541Z,7.35
2022-11-16T02:52:42.033Z,7.13
2022-11-16T02:55:10.410Z,6.95
2022-11-16T02:57:45.892Z,6.70
2022-11-16T03:00:19.953Z,7.55
2022-11-16T03:03:04.692Z,6.30
2022-11-16T03:05:38.265Z,7.60
2022-11-16T03:08:20.229Z,6.95
2022-11-16T03:11:21.665Z,7.88
2022-11-16T03:13:49.850Z,7.32
2022-11-16T03:16:25.385Z,7.45
2022-11-16T03:18:55.189Z,7.75
2022-11-16T03:21:44.005Z,7.28
2022-11-16T03:24:10.675Z,7.65
2022-11-16T03:27:03.355Z,7.22
2022-11-16T03:29:38.943Z,7.32
2022-11-16T03:32:17.954Z,7.28
2022-11-16T03:34:55.867Z,7.57
2022-11-16T03:37:24.776Z,7.95
2022-11-16T03:39:53.087Z,7.05
2022-11-16T03:42:21.676Z,7.70
2022-11-16T03:44:50.178Z,6.82
2022-11-16T03:47:16.559Z,6.85
2022-11-16T03:49:47.609Z,7.35
2022-11-16T03:52:17.168Z,7.15
2022-11-16T03:54:43.737Z,8.20
2022-11-16T03:57:18.033Z,8.13
2022-11-16T03:59:49.349Z,8.48
2022-11-16T04:02:15.796Z,8.60
2022-11-16T04:05:01.638Z,8.57
2022-11-16T04:07:46.772Z,8.25
2022-11-16T04:10:33.050Z,8.15
2022-11-16T04:13:19.303Z,7.78
2022-11-16T04:16:04.469Z,8.30
2022-11-16T04:18:49.589Z,8.32
2022-11-16T04:21:43.937Z,8.15
2022-11-16T04:24:19.281Z,8.88
2022-11-16T04:27:08.888Z,9.38
2022-11-16T04:29:35.995Z,9.32
2022-11-16T04:32:21.197Z,9.95
2022-11-16T04:35:06.499Z,9.82
2022-11-16T04:37:51.695Z,10.40
2022-11-16T04:40:29.310Z,8.95
2022-11-16T04:42:58.403Z,8.50
2022-11-16T04:45:45.717Z,7.07
2022-11-16T04:48:14.831Z,6.28
2022-11-16T04:50:41.949Z,5.28
2022-11-16T04:53:08.659Z,5.35
2022-11-16T04:55:43.268Z,5.22
2022-11-16T04:58:09.708Z,5.03
2022-11-16T05:00:36.284Z,4.70
2022-11-16T05:03:04.898Z,5.22
2022-11-16T05:05:32.319Z,4.53
2022-11-16T05:07:59.894Z,4.05
2022-11-16T05:10:28.899Z,4.57
2022-11-16T05:12:55.982Z,4.40
2022-11-16T05:15:23.486Z,4.80
2022-11-16T05:17:51.288Z,4.72
2022-11-16T05:20:40.263Z,3.90
2022-11-16T05:23:28.002Z,3.70
2022-11-16T05:25:55.712Z,3.60
2022-11-16T05:28:22.453Z,3.40
2022-11-16T05:30:48.848Z,2.88
2022-11-16T05:33:19.614Z,3.45
2022-11-16T05:35:46.142Z,3.40
2022-11-16T05:38:13.809Z,2.85
2022-11-16T05:40:44.103Z,3.55
2022-11-16T05:43:10.642Z,2.80
2022-11-16T05:45:43.202Z,2.85
2022-11-16T05:48:10.820Z,2.95
2022-11-16T05:50:42.372Z,2.47
2022-11-16T05:53:19.385Z,2.60
2022-11-16T05:55:46.693Z,2.65
2022-11-16T05:58:13.264Z,2.30
2022-11-16T06:00:39.903Z,2.38
2022-11-16T06:03:09.468Z,1.90
2022-11-16T06:05:40.407Z,2.28
2022-11-16T06:08:08.604Z,2.00
2022-11-16T06:10:35.259Z,2.42
2022-11-16T06:13:01.972Z,1.92
2022-11-16T06:15:28.855Z,2.08
2022-11-16T06:17:55.246Z,2.17
2022-11-16T06:20:21.661Z,1.80
2022-11-16T06:22:48.120Z,1.90
2022-11-16T06:25:15.210Z,2.10
2022-11-16T06:27:43.827Z,2.60
2022-11-16T06:30:13.442Z,1.83
2022-11-16T06:32:40.073Z,2.50
2022-11-16T06:35:07.575Z,2.72
2022-11-16T06:37:34.442Z,2.20
2022-11-16T06:40:00.913Z,2.53
2022-11-16T06:42:31.283Z,2.40
2022-11-16T06:44:59.376Z,2.90
2022-11-16T06:47:30.095Z,2.83
2022-11-16T06:49:57.022Z,3.30
2022-11-16T06:52:23.862Z,3.42
2022-11-16T06:54:50.445Z,3.03
2022-11-16T06:57:18.284Z,3.42
2022-11-16T06:59:45.175Z,2.67
2022-11-16T07:02:12.628Z,2.95
2022-11-16T07:04:39.958Z,2.78
2022-11-16T07:07:07.644Z,3.08
2022-11-16T07:09:35.806Z,3.60
2022-11-16T07:12:02.510Z,2.80
2022-11-16T07:14:34.291Z,3.05
2022-11-16T07:17:09.106Z,3.08
2022-11-16T07:19:36.740Z,3.33
2022-11-16T07:22:04.235Z,2.90
2022-11-16T07:24:31.030Z,2.80
2022-11-16T07:26:57.707Z,3.65
2022-11-16T07:29:26.256Z,3.58
2022-11-16T07:32:24.913Z,3.47
2022-11-16T07:35:11.759Z,3.40
2022-11-16T07:37:39.079Z,3.50
2022-11-16T07:40:07.520Z,2.95
2022-11-16T07:42:33.974Z,3.30
2022-11-16T07:45:07.595Z,2.53
2022-11-16T07:47:38.980Z,2.63
2022-11-16T07:50:08.673Z,2.78
2022-11-16T07:52:35.335Z,2.67
2022-11-16T07:55:15.583Z,3.45
2022-11-16T07:57:43.061Z,2.25
2022-11-16T08:00:09.746Z,2.50
2022-11-16T08:02:49.032Z,2.92
2022-11-16T08:05:20.127Z,2.50
2022-11-16T08:07:48.846Z,3.05
2022-11-16T08:10:16.148Z,3.17
2022-11-16T08:12:42.600Z,2.80
2022-11-16T08:15:11.264Z,3.22
2022-11-16T08:17:37.896Z,3.20
2022-11-16T08:20:06.241Z,3.28
2022-11-16T08:22:32.635Z,2.90
2022-11-16T08:24:59.084Z,2.78
2022-11-16T08:27:25.795Z,2.97
2022-11-16T08:29:56.041Z,2.85
2022-11-16T08:32:22.521Z,2.80
2022-11-16T08:34:48.952Z,2.95
2022-11-16T08:37:15.833Z,2.40
2022-11-16T08:39:44.341Z,2.30
2022-11-16T08:42:10.990Z,2.33
2022-11-16T08:44:39.024Z,2.50
2022-11-16T08:47:10.360Z,3.00
2022-11-16T08:49:45.224Z,2.47
2022-11-16T08:52:16.121Z,2.72
2022-11-16T08:54:43.073Z,2.47
2022-11-16T08:57:10.586Z,2.72
2022-11-16T08:59:39.115Z,2.80
2022-11-16T09:02:10.481Z,2.03
2022-11-16T09:04:37.405Z,2.13
2022-11-16T09:07:04.085Z,2.35
2022-11-16T09:09:30.763Z,2.10
2022-11-16T09:11:57.137Z,1.77
2022-11-16T09:14:23.573Z,1.88
2022-11-16T09:16:49.929Z,1.92
2022-11-16T09:19:16.440Z,1.77
2022-11-16T09:21:44.472Z,1.90
2022-11-16T09:24:11.583Z,1.95
2022-11-16T09:26:37.943Z,2.10
2022-11-16T09:29:04.324Z,1.70
2022-11-16T09:31:34.524Z,1.80
2022-11-16T09:34:00.950Z,1.98
2022-11-16T09:36:28.496Z,1.95
2022-11-16T09:39:29.091Z,1.60
2022-11-16T09:42:14.181Z,1.73
2022-11-16T09:44:48.942Z,1.98
2022-11-16T09:47:46.363Z,1.88
2022-11-16T09:50:25.715Z,1.90
2022-11-16T09:52:57.038Z,1.83
2022-11-16T09:55:47.197Z,2.17
2022-11-16T09:58:21.992Z,2.10
2022-11-16T10:00:54.640Z,2.72
2022-11-16T10:03:21.404Z,2.35
2022-11-16T10:05:59.912Z,2.40
2022-11-16T10:08:41.861Z,1.88
2022-11-16T10:11:28.533Z,2.25
2022-11-16T10:14:04.321Z,2.15
2022-11-16T10:16:31.938Z,2.25
2022-11-16T10:19:26.611Z,2.47
2022-11-16T10:22:15.094Z,1.92
2022-11-16T10:24:58.011Z,2.05
2022-11-16T10:27:44.432Z,1.95
2022-11-16T10:30:19.175Z,1.50
2022-11-16T10:32:48.804Z,1.90
2022-11-16T10:35:19.810Z,1.80
2022-11-16T10:37:51.584Z,2.00
2022-11-16T10:40:23.278Z,2.20
2022-11-16T10:42:59.807Z,1.65
2022-11-16T10:45:59.908Z,1.88
2022-11-16T10:48:46.452Z,1.15
2022-11-16T10:51:12.995Z,1.73
2022-11-16T10:53:42.417Z,1.95
2022-11-16T10:56:32.436Z,1.60
2022-11-16T10:59:01.504Z,2.03
2022-11-16T11:01:41.776Z,1.42
2022-11-16T11:04:17.416Z,1.10
2022-11-16T11:06:45.391Z,1.30
2022-11-16T11:09:31.919Z,2.00
2022-11-16T11:12:33.401Z,1.80
2022-11-16T11:15:11.725Z,1.40
2022-11-16T11:17:40.362Z,1.15
2022-11-16T11:20:08.436Z,1.92
2022-11-16T11:22:42.829Z,1.45
2022-11-16T11:25:41.116Z,1.00
2022-11-16T11:28:18.742Z,1.10
2022-11-16T11:31:00.451Z,1.52
2022-11-16T11:33:32.753Z,1.10
2022-11-16T11:36:20.224Z,1.20
2022-11-16T11:39:00.378Z,1.15
2022-11-16T11:41:33.888Z,0.93
2022-11-16T11:46:56.102Z,1.08
2022-11-16T11:49:23.608Z,1.25
2022-11-16T11:51:51.496Z,1.33
2022-11-16T11:54:26.440Z,1.52
2022-11-16T11:56:52.887Z,1.33
2022-11-16T11:59:23.623Z,1.15
2022-11-16T12:02:14.888Z,1.30
2022-11-16T12:04:51.486Z,1.40
2022-11-16T12:08:02.458Z,1.30
2022-11-16T12:10:46.797Z,1.17
2022-11-16T12:13:44.336Z,1.35
2022-11-16T12:16:29.492Z,1.17
2022-11-16T12:19:14.894Z,1.35
2022-11-16T12:21:49.064Z,1.35
2022-11-16T12:24:34.344Z,1.65
2022-11-16T12:27:19.792Z,1.52
2022-11-16T12:30:11.278Z,1.17
2022-11-16T12:32:53.370Z,1.50
2022-11-16T12:35:36.898Z,1.50
2022-11-16T12:41:21.464Z,1.40
2022-11-16T12:43:59.788Z,1.63
2022-11-16T12:46:54.457Z,1.30
2022-11-16T12:49:36.064Z,1.50
2022-11-16T12:52:23.428Z,0.95
2022-11-16T12:55:25.953Z,1.20
2022-11-16T12:58:10.166Z,1.25
2022-11-16T13:00:57.208Z,1.40
2022-11-16T13:03:34.355Z,1.20
2022-11-16T13:06:16.014Z,1.20
2022-11-16T13:08:49.026Z,1.48
2022-11-16T13:11:37.359Z,1.48
2022-11-16T13:14:13.144Z,1.20
2022-11-16T13:16:39.679Z,1.30
2022-11-16T13:19:10.087Z,1.50
2022-11-16T13:21:55.380Z,0.90
2022-11-16T13:24:35.881Z,1.20
2022-11-16T13:27:29.987Z,1.10
2022-11-16T13:30:02.816Z,1.38
2022-11-16T13:32:32.180Z,1.33
2022-11-16T13:34:59.989Z,1.70
2022-11-16T13:37:36.557Z,1.30
2022-11-16T13:40:03.427Z,1.20
2022-11-16T13:42:35.185Z,1.33
2022-11-16T13:45:19.807Z,1.52
2022-11-16T13:47:55.636Z,1.40
2022-11-16T13:50:33.031Z,1.60
2022-11-16T13:56:09.033Z,1.42
2022-11-16T13:58:43.660Z,1.45
2022-11-16T14:01:15.545Z,1.45
2022-11-16T14:03:44.196Z,1.50
2022-11-16T14:06:13.694Z,1.42
2022-11-16T14:08:40.006Z,1.48
2022-11-16T14:11:28.336Z,1.40
2022-11-16T14:13:54.937Z,1.33
2022-11-16T14:16:21.482Z,1.52
2022-11-16T14:18:49.420Z,1.13
2022-11-16T14:21:46.917Z,1.30
2022-11-16T14:24:39.363Z,1.50
2022-11-16T14:27:13.166Z,1.50
2022-11-16T14:29:54.500Z,1.30
2022-11-16T14:32:25.564Z,1.10
2022-11-16T14:34:54.429Z,1.35
2022-11-16T14:37:30.200Z,1.13
2022-11-16T14:40:08.657Z,1.27
2022-11-16T14:43:10.014Z,1.52
2022-11-16T14:45:38.914Z,1.25
2022-11-16T14:48:17.151Z,1.00
2022-11-16T14:50:47.640Z,1.00
2022-11-16T14:53:17.953Z,0.82
2022-11-16T14:55:46.129Z,0.85
2022-11-16T14:58:23.594Z,0.77
2022-11-16T15:00:55.183Z,0.95
2022-11-16T15:03:23.818Z,1.20
2022-11-16T15:05:50.495Z,1.20
2022-11-16T15:08:22.582Z,1.00
2022-11-16T15:10:52.512Z,1.27
2022-11-16T15:13:22.197Z,1.60
2022-11-16T15:15:50.133Z,1.33
2022-11-16T15:18:20.520Z,1.30
2022-11-16T15:20:50.249Z,0.95
2022-11-16T15:23:18.063Z,1.08
2022-11-16T15:25:51.700Z,1.13
2022-11-16T15:28:27.003Z,1.40
2022-11-16T15:31:04.199Z,1.38
2022-11-16T15:33:32.710Z,1.15
2022-11-16T15:35:59.552Z,1.60
2022-11-16T15:38:29.939Z,1.20
2022-11-16T15:41:01.929Z,1.40
2022-11-16T15:43:36.025Z,1.00
2022-11-16T15:46:09.041Z,1.30
2022-11-16T15:48:38.366Z,1.42
2022-11-16T15:51:19.892Z,1.05
2022-11-16T15:53:48.428Z,1.13
2022-11-16T15:56:27.012Z,1.20
2022-11-16T15:59:01.032Z,1.58
2022-11-16T16:01:31.008Z,1.52
2022-11-16T16:04:06.035Z,1.67
2022-11-16T16:06:47.564Z,1.85
2022-11-16T16:09:36.644Z,1.80
2022-11-16T16:12:20.500Z,1.63
2022-11-16T16:14:49.104Z,1.85
2022-11-16T16:17:23.288Z,1.75
2022-11-16T16:20:02.068Z,2.15
2022-11-16T16:22:32.610Z,1.95
2022-11-16T16:25:00.543Z,1.92
2022-11-16T16:27:29.315Z,2.05
2022-11-16T16:29:57.597Z,1.55
2022-11-16T16:32:35.679Z,1.70
2022-11-16T16:35:05.646Z,1.85
2022-11-16T16:37:34.001Z,1.83
2022-11-16T16:40:00.506Z,1.95
2022-11-16T16:42:27.521Z,2.08
2022-11-16T16:44:53.958Z,2.65
2022-11-16T16:47:20.918Z,2.60
2022-11-16T16:49:50.294Z,2.92
2022-11-16T16:52:17.036Z,2.60
2022-11-16T16:54:43.585Z,2.58
2022-11-16T16:57:17.600Z,2.20
2022-11-16T16:59:45.575Z,2.90
2022-11-16T17:02:12.908Z,2.83
2022-11-16T17:04:39.798Z,2.83
2022-11-16T17:07:06.623Z,2.28
2022-11-16T17:09:33.103Z,2.95
2022-11-16T17:11:59.463Z,2.42
2022-11-16T17:14:25.976Z,2.17
2022-11-16T17:16:52.390Z,3.58
2022-11-16T17:19:19.568Z,5.05
2022-11-16T17:21:45.978Z,5.85
2022-11-16T17:24:12.707Z,5.13
2022-11-16T17:26:40.411Z,4.40
2022-11-16T17:29:06.950Z,3.38
2022-11-16T17:31:33.354Z,3.40
2022-11-16T17:33:59.741Z,3.08
2022-11-16T17:36:26.129Z,2.72
2022-11-16T17:38:52.516Z,2.40
2022-11-16T17:41:25.327Z,2.88
2022-11-16T17:43:53.247Z,2.97
2022-11-16T17:46:21.888Z,2.85
2022-11-16T17:48:48.710Z,3.33
2022-11-16T17:51:17.906Z,3.15
2022-11-16T17:53:45.116Z,2.67
2022-11-16T17:56:13.677Z,3.15
2022-11-16T17:58:40.421Z,3.15
2022-11-16T18:01:07.476Z,2.70
2022-11-16T18:03:38.266Z,2.30
2022-11-16T18:06:08.428Z,2.72
2022-11-16T18:08:36.336Z,3.67
2022-11-16T18:11:07.666Z,2.90
2022-11-16T18:13:35.567Z,3.00
2022-11-16T18:16:06.573Z,2.47
2022-11-16T18:18:33.830Z,2.45
2022-11-16T18:21:01.076Z,2.58
2022-11-16T18:23:28.854Z,2.42
2022-11-16T18:25:55.611Z,2.35
2022-11-16T18:28:22.843Z,2.58
2022-11-16T18:30:49.431Z,3.20
2022-11-16T18:33:18.896Z,2.55
2022-11-16T18:35:46.642Z,2.13
2022-11-16T18:38:13.125Z,2.50
2022-11-16T18:40:42.352Z,2.10
2022-11-16T18:43:13.243Z,2.70
2022-11-16T18:45:39.679Z,2.20
2022-11-16T18:48:06.913Z,2.17
2022-11-16T18:50:33.405Z,2.13
2022-11-16T18:52:59.800Z,2.30
2022-11-16T18:55:26.221Z,1.70
2022-11-16T18:57:52.612Z,2.05
2022-11-16T19:00:19.405Z,1.85
2022-11-16T19:02:45.773Z,2.00
2022-11-16T19:05:12.184Z,2.20
2022-11-16T19:07:38.629Z,2.15
2022-11-16T19:10:05.515Z,2.03
2022-11-16T19:12:31.866Z,2.08
2022-11-16T19:14:58.302Z,1.90
2022-11-16T19:17:25.096Z,1.83
2022-11-16T19:19:51.492Z,2.10
2022-11-16T19:22:18.233Z,1.83
2022-11-16T19:24:44.694Z,2.15
2022-11-16T19:27:11.977Z,2.20
2022-11-16T19:29:38.444Z,2.83
2022-11-16T19:32:05.055Z,2.25
2022-11-16T19:34:33.422Z,2.25
2022-11-16T19:37:00.138Z,2.30
2022-11-16T19:39:26.645Z,2.38
2022-11-16T19:41:53.016Z,2.08
2022-11-16T19:44:19.953Z,1.95
2022-11-16T19:46:46.336Z,2.30
2022-11-16T19:49:19.605Z,2.20
2022-11-16T19:51:46.317Z,1.83
2022-11-16T19:54:14.644Z,1.75
2022-11-16T19:56:42.315Z,2.28
2022-11-16T19:59:09.149Z,1.90
2022-11-16T20:01:35.874Z,2.10
2022-11-16T20:04:03.495Z,2.10
2022-11-16T20:06:32.415Z,1.83
2022-11-16T20:09:03.884Z,2.03
2022-11-16T20:11:33.545Z,2.13
2022-11-16T20:14:00.210Z,2.10
2022-11-16T20:16:35.391Z,1.80
2022-11-16T20:19:05.071Z,2.25
2022-11-16T20:21:36.760Z,1.98
2022-11-16T20:24:06.658Z,1.92
2022-11-16T20:26:35.130Z,2.03
2022-11-16T20:29:01.980Z,2.17
2022-11-16T20:31:31.052Z,2.35
2022-11-16T20:33:59.005Z,1.83
2022-11-16T20:36:27.769Z,2.17
2022-11-16T20:38:54.596Z,2.00
2022-11-16T20:41:23.467Z,2.25
2022-11-16T20:43:52.009Z,1.90
2022-11-16T20:46:20.892Z,1.60
2022-11-16T20:48:47.668Z,2.28
2022-11-16T20:51:16.932Z,1.70
2022-11-16T20:53:44.092Z,1.75
2022-11-16T20:56:14.602Z,1.98
2022-11-16T20:58:41.281Z,1.80
2022-11-16T21:01:11.881Z,1.90
2022-11-16T21:03:39.078Z,1.88
2022-11-16T21:06:09.133Z,2.00
2022-11-16T21:08:36.788Z,1.80
2022-11-16T21:11:10.071Z,1.77
2022-11-16T21:14:12.174Z,1.73
2022-11-16T21:16:39.167Z,2.08
2022-11-16T21:19:06.284Z,2.00
2022-11-16T21:21:33.090Z,2.10
2022-11-16T21:23:59.826Z,2.05
2022-11-16T21:26:28.627Z,2.10
2022-11-16T21:28:55.558Z,2.03
2022-11-16T21:31:25.562Z,1.83
2022-11-16T21:33:52.885Z,1.90
2022-11-16T21:36:21.283Z,2.05
2022-11-16T21:38:48.646Z,1.70
2022-11-16T21:41:16.160Z,2.03
2022-11-16T21:43:42.878Z,1.80
2022-11-16T21:46:21.185Z,1.67
2022-11-16T21:48:48.552Z,2.08
2022-11-16T21:51:20.700Z,1.65
2022-11-16T21:53:47.807Z,1.58
2022-11-16T21:56:19.225Z,1.80
2022-11-16T21:58:47.512Z,2.00
2022-11-16T22:01:16.036Z,2.10
2022-11-16T22:03:43.034Z,1.92
2022-11-16T22:06:31.323Z,2.13
2022-11-16T22:08:57.832Z,2.22
2022-11-16T22:11:24.276Z,1.98
2022-11-16T22:13:50.792Z,2.03
2022-11-16T22:16:20.927Z,1.65
2022-11-16T22:18:47.321Z,1.95
2022-11-16T22:21:13.704Z,2.35
2022-11-16T22:23:40.626Z,1.83
2022-11-16T22:26:12.014Z,2.17
2022-11-16T22:28:38.923Z,1.77
2022-11-16T22:31:13.173Z,1.60
2022-11-16T22:33:40.071Z,1.50
2022-11-16T22:36:10.480Z,1.63
2022-11-16T22:38:37.534Z,1.52
2022-11-16T22:41:04.155Z,1.65
2022-11-16T22:43:31.513Z,1.48
2022-11-16T22:46:02.869Z,1.42
2022-11-16T22:48:34.323Z,1.30
2022-11-16T22:51:17.476Z,1.60
2022-11-16T22:53:43.898Z,1.70
2022-11-16T22:56:10.983Z,1.60
2022-11-16T22:58:38.639Z,1.70
2022-11-16T23:01:07.454Z,1.60
2022-11-16T23:03:34.410Z,1.40
2022-11-16T23:06:01.273Z,1.50
2022-11-16T23:08:28.120Z,1.42
2022-11-16T23:11:20.514Z,1.60
2022-11-16T23:14:06.032Z,1.63
2022-11-16T23:16:32.743Z,1.70
2022-11-16T23:18:59.374Z,1.40
2022-11-16T23:21:44.579Z,1.48
2022-11-16T23:24:34.226Z,1.65
2022-11-16T23:27:22.015Z,1.27
2022-11-16T23:29:48.768Z,1.65
2022-11-16T23:32:15.193Z,1.73
2022-11-16T23:34:41.591Z,1.92
2022-11-16T23:37:07.984Z,1.40
2022-11-16T23:39:34.446Z,1.80
2022-11-16T23:42:19.697Z,1.67
2022-11-16T23:44:46.094Z,1.60
2022-11-16T23:47:12.692Z,1.40
2022-11-16T23:49:39.094Z,1.85
2022-11-16T23:52:05.481Z,2.10
2022-11-16T23:54:32.088Z,1.52
2022-11-16T23:56:58.550Z,1.58
2022-11-16T23:59:24.915Z,1.55
